sensor_id;sensor_type;location;lat;lon;timestamp;temperature;humidity
15483;DHT22;7843;50.330;7.312;2023-02-20T00:01:55;4.20;99.90
15483;DHT22;7843;50.330;7.312;2023-02-20T00:04:22;4.10;99.90
15483;DHT22;7843;50.330;7.312;2023-02-20T00:06:49;4.10;99.90
15483;DHT22;7843;50.330;7.312;2023-02-20T00:09:16;4.00;99.90
15483;DHT22;7843;50.330;7.312;2023-02-20T00:11:43;4.00;99.90
15483;DHT22;7843;50.330;7.312;2023-02-20T00:14:09;3.90;99.90
15483;DHT22;7843;50.330;7.312;2023-02-20T00:16:36;3.90;99.90
15483;DHT22;7843;50.330;7.312;2023-02-20T00:19:03;3.80;99.90
15483;DHT22;7843;50.330;7.312;2023-02-20T00:21:30;3.70;99.90
15483;DHT22;7843;50.330;7.312;2023-02-20T00:23:57;3.70;99.90
15483;DHT22;7843;50.330;7.312;2023-02-20T00:26:23;3.70;99.90
15483;DHT22;7843;50.330;7.312;2023-02-20T00:28:50;3.70;99.90
15483;DHT22;7843;50.330;7.312;2023-02-20T00:31:17;3.60;99.90
15483;DHT22;7843;50.330;7.312;2023-02-20T00:33:45;3.60;99.90
15483;DHT22;7843;50.330;7.312;2023-02-20T00:36:17;3.60;99.90
15483;DHT22;7843;50.330;7.312;2023-02-20T00:38:44;3.60;99.90
15483;DHT22;7843;50.330;7.312;2023-02-20T00:41:12;3.70;99.90
15483;DHT22;7843;50.330;7.312;2023-02-20T00:43:43;3.70;99.90
15483;DHT22;7843;50.330;7.312;2023-02-20T00:46:11;3.70;99.90
15483;DHT22;7843;50.330;7.312;2023-02-20T00:48:39;3.70;99.90
15483;DHT22;7843;50.330;7.312;2023-02-20T00:51:05;3.70;99.90
15483;DHT22;7843;50.330;7.312;2023-02-20T00:53:32;3.70;99.90
15483;DHT22;7843;50.330;7.312;2023-02-20T00:55:59;3.60;99.90
15483;DHT22;7843;50.330;7.312;2023-02-20T00:58:26;3.60;99.90
15483;DHT22;7843;50.330;7.312;2023-02-20T01:00:52;3.60;99.90
15483;DHT22;7843;50.330;7.312;2023-02-20T01:03:19;3.60;99.90
15483;DHT22;7843;50.330;7.312;2023-02-20T01:05:46;3.50;99.90
15483;DHT22;7843;50.330;7.312;2023-02-20T01:08:12;3.50;99.90
15483;DHT22;7843;50.330;7.312;2023-02-20T01:10:39;3.50;99.90
15483;DHT22;7843;50.330;7.312;2023-02-20T01:13:06;3.50;99.90
15483;DHT22;7843;50.330;7.312;2023-02-20T01:15:35;3.50;99.90
15483;DHT22;7843;50.330;7.312;2023-02-20T01:18:01;3.50;99.90
15483;DHT22;7843;50.330;7.312;2023-02-20T01:20:28;3.40;99.90
15483;DHT22;7843;50.330;7.312;2023-02-20T01:22:55;3.40;99.90
15483;DHT22;7843;50.330;7.312;2023-02-20T01:25:24;3.40;99.90
15483;DHT22;7843;50.330;7.312;2023-02-20T01:27:50;3.30;99.90
15483;DHT22;7843;50.330;7.312;2023-02-20T01:30:17;3.20;99.90
15483;DHT22;7843;50.330;7.312;2023-02-20T01:32:44;3.20;99.90
15483;DHT22;7843;50.330;7.312;2023-02-20T01:35:11;3.10;99.90
15483;DHT22;7843;50.330;7.312;2023-02-20T01:37:37;3.10;99.90
15483;DHT22;7843;50.330;7.312;2023-02-20T01:40:05;3.10;99.90
15483;DHT22;7843;50.330;7.312;2023-02-20T01:42:33;3.00;99.90
15483;DHT22;7843;50.330;7.312;2023-02-20T01:47:51;2.90;99.90
15483;DHT22;7843;50.330;7.312;2023-02-20T01:50:21;2.80;99.90
15483;DHT22;7843;50.330;7.312;2023-02-20T01:52:52;2.80;99.90
15483;DHT22;7843;50.330;7.312;2023-02-20T01:55:23;2.90;99.90
15483;DHT22;7843;50.330;7.312;2023-02-20T01:57:54;2.80;99.90
15483;DHT22;7843;50.330;7.312;2023-02-20T02:00:23;2.80;99.90
15483;DHT22;7843;50.330;7.312;2023-02-20T02:02:57;2.80;99.90
15483;DHT22;7843;50.330;7.312;2023-02-20T02:05:27;2.80;99.90
15483;DHT22;7843;50.330;7.312;2023-02-20T02:07:56;2.90;99.90
15483;DHT22;7843;50.330;7.312;2023-02-20T02:10:30;2.90;99.90
15483;DHT22;7843;50.330;7.312;2023-02-20T02:12:57;3.00;99.90
15483;DHT22;7843;50.330;7.312;2023-02-20T02:15:24;3.00;99.90
15483;DHT22;7843;50.330;7.312;2023-02-20T02:18:17;3.10;99.90
15483;DHT22;7843;50.330;7.312;2023-02-20T02:23:51;3.10;99.90
15483;DHT22;7843;50.330;7.312;2023-02-20T02:38:16;3.10;99.90
15483;DHT22;7843;50.330;7.312;2023-02-20T02:40:53;3.10;99.90
15483;DHT22;7843;50.330;7.312;2023-02-20T02:43:49;3.00;99.90
15483;DHT22;7843;50.330;7.312;2023-02-20T02:46:29;3.10;99.90
15483;DHT22;7843;50.330;7.312;2023-02-20T02:49:08;3.10;99.90
15483;DHT22;7843;50.330;7.312;2023-02-20T02:51:39;3.10;99.90
15483;DHT22;7843;50.330;7.312;2023-02-20T02:54:17;3.10;99.90
15483;DHT22;7843;50.330;7.312;2023-02-20T02:56:47;3.20;99.90
15483;DHT22;7843;50.330;7.312;2023-02-20T02:59:23;3.20;99.90
15483;DHT22;7843;50.330;7.312;2023-02-20T03:01:57;3.20;99.90
15483;DHT22;7843;50.330;7.312;2023-02-20T03:04:27;3.20;99.90
15483;DHT22;7843;50.330;7.312;2023-02-20T03:06:59;3.30;99.90
15483;DHT22;7843;50.330;7.312;2023-02-20T03:09:30;3.20;99.90
15483;DHT22;7843;50.330;7.312;2023-02-20T03:11:58;3.20;99.90
15483;DHT22;7843;50.330;7.312;2023-02-20T03:14:57;3.20;99.90
15483;DHT22;7843;50.330;7.312;2023-02-20T03:18:00;3.20;99.90
15483;DHT22;7843;50.330;7.312;2023-02-20T03:20:39;3.10;99.90
15483;DHT22;7843;50.330;7.312;2023-02-20T03:23:09;3.40;99.90
15483;DHT22;7843;50.330;7.312;2023-02-20T03:25:46;3.30;99.90
15483;DHT22;7843;50.330;7.312;2023-02-20T03:31:01;3.20;99.90
15483;DHT22;7843;50.330;7.312;2023-02-20T03:34:04;3.20;99.90
15483;DHT22;7843;50.330;7.312;2023-02-20T03:37:02;3.20;99.90
15483;DHT22;7843;50.330;7.312;2023-02-20T03:39:52;3.20;99.90
15483;DHT22;7843;50.330;7.312;2023-02-20T03:42:42;3.20;99.90
15483;DHT22;7843;50.330;7.312;2023-02-20T03:45:30;3.10;99.90
15483;DHT22;7843;50.330;7.312;2023-02-20T03:48:01;3.10;99.90
15483;DHT22;7843;50.330;7.312;2023-02-20T03:50:29;3.00;99.90
15483;DHT22;7843;50.330;7.312;2023-02-20T03:52:56;3.10;99.90
15483;DHT22;7843;50.330;7.312;2023-02-20T03:55:23;3.00;99.90
15483;DHT22;7843;50.330;7.312;2023-02-20T03:57:53;3.10;99.90
15483;DHT22;7843;50.330;7.312;2023-02-20T04:00:27;3.10;99.90
15483;DHT22;7843;50.330;7.312;2023-02-20T04:02:58;3.20;99.90
15483;DHT22;7843;50.330;7.312;2023-02-20T04:05:33;3.20;99.90
15483;DHT22;7843;50.330;7.312;2023-02-20T04:08:40;3.40;99.90
15483;DHT22;7843;50.330;7.312;2023-02-20T04:11:02;3.20;99.90
15483;DHT22;7843;50.330;7.312;2023-02-20T04:13:32;3.10;99.90
15483;DHT22;7843;50.330;7.312;2023-02-20T04:16:00;3.10;99.90
15483;DHT22;7843;50.330;7.312;2023-02-20T04:18:28;3.10;99.90
15483;DHT22;7843;50.330;7.312;2023-02-20T04:20:58;3.20;99.90
15483;DHT22;7843;50.330;7.312;2023-02-20T04:23:26;3.30;99.90
15483;DHT22;7843;50.330;7.312;2023-02-20T04:26:00;3.40;99.90
15483;DHT22;7843;50.330;7.312;2023-02-20T04:28:28;3.40;99.90
15483;DHT22;7843;50.330;7.312;2023-02-20T04:30:56;3.40;99.90
15483;DHT22;7843;50.330;7.312;2023-02-20T04:33:22;3.50;99.90
15483;DHT22;7843;50.330;7.312;2023-02-20T04:35:49;3.50;99.90
15483;DHT22;7843;50.330;7.312;2023-02-20T04:38:16;3.50;99.90
15483;DHT22;7843;50.330;7.312;2023-02-20T04:40:42;3.40;99.90
15483;DHT22;7843;50.330;7.312;2023-02-20T04:43:09;3.40;99.90
15483;DHT22;7843;50.330;7.312;2023-02-20T04:45:36;3.40;99.90
15483;DHT22;7843;50.330;7.312;2023-02-20T04:48:02;3.40;99.90
15483;DHT22;7843;50.330;7.312;2023-02-20T04:50:32;3.40;99.90
15483;DHT22;7843;50.330;7.312;2023-02-20T04:52:59;3.40;99.90
15483;DHT22;7843;50.330;7.312;2023-02-20T04:55:26;3.40;99.90
15483;DHT22;7843;50.330;7.312;2023-02-20T04:57:54;3.40;99.90
15483;DHT22;7843;50.330;7.312;2023-02-20T05:00:24;3.30;99.90
15483;DHT22;7843;50.330;7.312;2023-02-20T05:02:52;3.30;99.90
15483;DHT22;7843;50.330;7.312;2023-02-20T05:05:22;3.30;99.90
15483;DHT22;7843;50.330;7.312;2023-02-20T05:07:55;3.30;99.90
15483;DHT22;7843;50.330;7.312;2023-02-20T05:10:23;3.30;99.90
15483;DHT22;7843;50.330;7.312;2023-02-20T05:12:51;3.30;99.90
15483;DHT22;7843;50.330;7.312;2023-02-20T05:15:18;3.40;99.90
15483;DHT22;7843;50.330;7.312;2023-02-20T05:17:45;3.30;99.90
15483;DHT22;7843;50.330;7.312;2023-02-20T05:20:13;3.30;99.90
15483;DHT22;7843;50.330;7.312;2023-02-20T05:22:40;3.20;99.90
15483;DHT22;7843;50.330;7.312;2023-02-20T05:25:07;3.20;99.90
15483;DHT22;7843;50.330;7.312;2023-02-20T05:27:34;3.30;99.90
15483;DHT22;7843;50.330;7.312;2023-02-20T05:30:01;3.20;99.90
15483;DHT22;7843;50.330;7.312;2023-02-20T05:32:29;3.20;99.90
15483;DHT22;7843;50.330;7.312;2023-02-20T05:34:56;3.20;99.90
15483;DHT22;7843;50.330;7.312;2023-02-20T05:37:25;3.10;99.90
15483;DHT22;7843;50.330;7.312;2023-02-20T05:39:52;3.10;99.90
15483;DHT22;7843;50.330;7.312;2023-02-20T05:42:19;3.00;99.90
15483;DHT22;7843;50.330;7.312;2023-02-20T05:44:48;2.90;99.90
15483;DHT22;7843;50.330;7.312;2023-02-20T05:47:16;2.90;99.90
15483;DHT22;7843;50.330;7.312;2023-02-20T05:49:42;2.80;99.90
15483;DHT22;7843;50.330;7.312;2023-02-20T05:52:11;2.90;99.90
15483;DHT22;7843;50.330;7.312;2023-02-20T05:54:41;3.00;99.90
15483;DHT22;7843;50.330;7.312;2023-02-20T05:57:10;2.80;99.90
15483;DHT22;7843;50.330;7.312;2023-02-20T05:59:38;2.90;99.90
15483;DHT22;7843;50.330;7.312;2023-02-20T06:02:04;2.80;99.90
15483;DHT22;7843;50.330;7.312;2023-02-20T06:04:31;2.70;99.90
15483;DHT22;7843;50.330;7.312;2023-02-20T06:06:58;2.60;99.90
15483;DHT22;7843;50.330;7.312;2023-02-20T06:09:25;2.50;99.90
15483;DHT22;7843;50.330;7.312;2023-02-20T06:11:53;2.50;99.90
15483;DHT22;7843;50.330;7.312;2023-02-20T06:14:22;2.50;99.90
15483;DHT22;7843;50.330;7.312;2023-02-20T06:16:49;2.50;99.90
15483;DHT22;7843;50.330;7.312;2023-02-20T06:19:21;2.50;99.90
15483;DHT22;7843;50.330;7.312;2023-02-20T06:21:50;2.40;99.90
15483;DHT22;7843;50.330;7.312;2023-02-20T06:24:16;2.40;99.90
15483;DHT22;7843;50.330;7.312;2023-02-20T06:26:44;2.30;99.90
15483;DHT22;7843;50.330;7.312;2023-02-20T06:29:12;2.40;99.90
15483;DHT22;7843;50.330;7.312;2023-02-20T06:31:39;2.30;99.90
15483;DHT22;7843;50.330;7.312;2023-02-20T06:34:07;2.30;99.90
15483;DHT22;7843;50.330;7.312;2023-02-20T06:36:36;2.30;99.90
15483;DHT22;7843;50.330;7.312;2023-02-20T06:39:04;2.40;99.90
15483;DHT22;7843;50.330;7.312;2023-02-20T06:41:31;2.40;99.90
15483;DHT22;7843;50.330;7.312;2023-02-20T06:43:58;2.40;99.90
15483;DHT22;7843;50.330;7.312;2023-02-20T06:46:25;2.50;99.90
15483;DHT22;7843;50.330;7.312;2023-02-20T06:48:54;2.50;99.90
15483;DHT22;7843;50.330;7.312;2023-02-20T06:51:24;2.60;99.90
15483;DHT22;7843;50.330;7.312;2023-02-20T06:53:54;2.70;99.90
15483;DHT22;7843;50.330;7.312;2023-02-20T06:56:24;2.80;99.90
15483;DHT22;7843;50.330;7.312;2023-02-20T06:58:52;2.90;99.90
15483;DHT22;7843;50.330;7.312;2023-02-20T07:01:20;3.00;99.90
15483;DHT22;7843;50.330;7.312;2023-02-20T07:03:48;3.00;99.90
15483;DHT22;7843;50.330;7.312;2023-02-20T07:06:16;3.10;99.90
15483;DHT22;7843;50.330;7.312;2023-02-20T07:08:43;3.20;99.90
15483;DHT22;7843;50.330;7.312;2023-02-20T07:11:10;3.30;99.90
15483;DHT22;7843;50.330;7.312;2023-02-20T07:13:37;3.50;99.90
15483;DHT22;7843;50.330;7.312;2023-02-20T07:16:04;3.60;99.90
15483;DHT22;7843;50.330;7.312;2023-02-20T07:18:31;3.60;99.90
15483;DHT22;7843;50.330;7.312;2023-02-20T07:20:58;3.70;99.90
15483;DHT22;7843;50.330;7.312;2023-02-20T07:23:25;3.80;99.90
15483;DHT22;7843;50.330;7.312;2023-02-20T07:25:51;3.90;99.90
15483;DHT22;7843;50.330;7.312;2023-02-20T07:28:19;3.90;99.90
15483;DHT22;7843;50.330;7.312;2023-02-20T07:30:46;4.10;99.90
15483;DHT22;7843;50.330;7.312;2023-02-20T07:33:16;4.10;99.90
15483;DHT22;7843;50.330;7.312;2023-02-20T07:35:43;4.20;99.90
15483;DHT22;7843;50.330;7.312;2023-02-20T07:38:10;4.20;99.90
15483;DHT22;7843;50.330;7.312;2023-02-20T07:40:37;4.30;99.90
15483;DHT22;7843;50.330;7.312;2023-02-20T07:43:05;4.40;99.90
15483;DHT22;7843;50.330;7.312;2023-02-20T07:45:32;4.50;99.90
15483;DHT22;7843;50.330;7.312;2023-02-20T07:47:59;4.60;99.90
15483;DHT22;7843;50.330;7.312;2023-02-20T07:50:26;4.50;99.90
15483;DHT22;7843;50.330;7.312;2023-02-20T07:52:52;4.60;99.90
15483;DHT22;7843;50.330;7.312;2023-02-20T07:55:19;4.70;99.90
15483;DHT22;7843;50.330;7.312;2023-02-20T07:57:47;4.80;99.90
15483;DHT22;7843;50.330;7.312;2023-02-20T08:00:17;5.10;99.90
15483;DHT22;7843;50.330;7.312;2023-02-20T08:02:44;5.10;99.90
15483;DHT22;7843;50.330;7.312;2023-02-20T08:05:12;5.20;99.90
15483;DHT22;7843;50.330;7.312;2023-02-20T08:07:43;5.20;99.90
15483;DHT22;7843;50.330;7.312;2023-02-20T08:10:11;5.30;99.90
15483;DHT22;7843;50.330;7.312;2023-02-20T08:12:38;5.40;99.90
15483;DHT22;7843;50.330;7.312;2023-02-20T08:15:05;5.40;99.90
15483;DHT22;7843;50.330;7.312;2023-02-20T08:17:32;5.50;99.90
15483;DHT22;7843;50.330;7.312;2023-02-20T08:20:11;5.50;99.90
15483;DHT22;7843;50.330;7.312;2023-02-20T08:22:38;5.60;99.90
15483;DHT22;7843;50.330;7.312;2023-02-20T08:25:07;5.60;99.90
15483;DHT22;7843;50.330;7.312;2023-02-20T08:27:34;5.70;99.90
15483;DHT22;7843;50.330;7.312;2023-02-20T08:30:06;5.80;99.90
15483;DHT22;7843;50.330;7.312;2023-02-20T08:32:33;5.90;99.90
15483;DHT22;7843;50.330;7.312;2023-02-20T08:35:00;5.90;99.90
15483;DHT22;7843;50.330;7.312;2023-02-20T08:37:27;6.00;99.90
15483;DHT22;7843;50.330;7.312;2023-02-20T08:39:53;6.10;99.90
15483;DHT22;7843;50.330;7.312;2023-02-20T08:42:20;6.10;99.90
15483;DHT22;7843;50.330;7.312;2023-02-20T08:44:47;6.30;99.90
15483;DHT22;7843;50.330;7.312;2023-02-20T08:47:13;6.30;99.90
15483;DHT22;7843;50.330;7.312;2023-02-20T08:49:40;6.40;99.90
15483;DHT22;7843;50.330;7.312;2023-02-20T08:52:07;6.50;99.90
15483;DHT22;7843;50.330;7.312;2023-02-20T08:54:33;6.50;99.90
15483;DHT22;7843;50.330;7.312;2023-02-20T08:57:00;6.60;99.90
15483;DHT22;7843;50.330;7.312;2023-02-20T08:59:30;6.70;99.90
15483;DHT22;7843;50.330;7.312;2023-02-20T09:01:57;6.70;99.90
15483;DHT22;7843;50.330;7.312;2023-02-20T09:04:24;6.70;99.90
15483;DHT22;7843;50.330;7.312;2023-02-20T09:06:50;6.80;99.90
15483;DHT22;7843;50.330;7.312;2023-02-20T09:09:17;6.80;99.90
15483;DHT22;7843;50.330;7.312;2023-02-20T09:11:44;6.90;99.90
15483;DHT22;7843;50.330;7.312;2023-02-20T09:14:10;7.10;99.90
15483;DHT22;7843;50.330;7.312;2023-02-20T09:16:37;7.20;99.50
15483;DHT22;7843;50.330;7.312;2023-02-20T09:19:08;7.40;99.50
15483;DHT22;7843;50.330;7.312;2023-02-20T09:21:35;7.50;98.30
15483;DHT22;7843;50.330;7.312;2023-02-20T09:24:04;7.60;97.70
15483;DHT22;7843;50.330;7.312;2023-02-20T09:26:31;7.70;98.00
15483;DHT22;7843;50.330;7.312;2023-02-20T09:28:57;7.80;97.20
15483;DHT22;7843;50.330;7.312;2023-02-20T09:31:24;7.90;97.20
15483;DHT22;7843;50.330;7.312;2023-02-20T09:33:51;7.80;95.50
15483;DHT22;7843;50.330;7.312;2023-02-20T09:36:18;7.80;95.70
15483;DHT22;7843;50.330;7.312;2023-02-20T09:38:44;7.80;95.80
15483;DHT22;7843;50.330;7.312;2023-02-20T09:41:29;7.90;96.60
15483;DHT22;7843;50.330;7.312;2023-02-20T09:44:20;8.00;96.60
15483;DHT22;7843;50.330;7.312;2023-02-20T09:46:52;8.20;96.90
15483;DHT22;7843;50.330;7.312;2023-02-20T09:49:25;8.30;95.90
15483;DHT22;7843;50.330;7.312;2023-02-20T09:51:58;8.40;95.90
15483;DHT22;7843;50.330;7.312;2023-02-20T09:57:04;8.50;95.00
15483;DHT22;7843;50.330;7.312;2023-02-20T09:59:48;8.60;95.20
15483;DHT22;7843;50.330;7.312;2023-02-20T10:02:31;8.70;95.30
15483;DHT22;7843;50.330;7.312;2023-02-20T10:05:03;8.70;94.30
15483;DHT22;7843;50.330;7.312;2023-02-20T10:07:34;8.90;94.40
15483;DHT22;7843;50.330;7.312;2023-02-20T10:13:05;9.00;94.30
15483;DHT22;7843;50.330;7.312;2023-02-20T10:21:25;9.30;94.30
15483;DHT22;7843;50.330;7.312;2023-02-20T10:23:57;9.40;92.80
15483;DHT22;7843;50.330;7.312;2023-02-20T10:26:38;9.60;92.80
15483;DHT22;7843;50.330;7.312;2023-02-20T10:29:20;9.70;94.40
15483;DHT22;7843;50.330;7.312;2023-02-20T10:31:52;9.80;93.80
15483;DHT22;7843;50.330;7.312;2023-02-20T10:34:27;9.90;93.90
15483;DHT22;7843;50.330;7.312;2023-02-20T10:37:07;10.00;92.80
15483;DHT22;7843;50.330;7.312;2023-02-20T10:39:37;10.00;90.80
15483;DHT22;7843;50.330;7.312;2023-02-20T10:42:13;10.10;92.40
15483;DHT22;7843;50.330;7.312;2023-02-20T10:44:46;10.10;91.80
15483;DHT22;7843;50.330;7.312;2023-02-20T10:50:07;10.20;92.40
15483;DHT22;7843;50.330;7.312;2023-02-20T10:52:53;10.20;93.90
15483;DHT22;7843;50.330;7.312;2023-02-20T10:58:05;10.20;93.30
15483;DHT22;7843;50.330;7.312;2023-02-20T11:00:39;10.30;93.90
15483;DHT22;7843;50.330;7.312;2023-02-20T11:03:14;10.50;94.40
15483;DHT22;7843;50.330;7.312;2023-02-20T11:05:47;10.60;94.40
15483;DHT22;7843;50.330;7.312;2023-02-20T11:08:15;10.70;94.00
15483;DHT22;7843;50.330;7.312;2023-02-20T11:10:54;10.80;93.50
15483;DHT22;7843;50.330;7.312;2023-02-20T11:13:23;10.90;94.40
15483;DHT22;7843;50.330;7.312;2023-02-20T11:15:53;11.00;94.00
15483;DHT22;7843;50.330;7.312;2023-02-20T11:18:29;11.00;93.40
15483;DHT22;7843;50.330;7.312;2023-02-20T11:20:56;11.00;93.20
15483;DHT22;7843;50.330;7.312;2023-02-20T11:23:43;11.10;92.90
15483;DHT22;7843;50.330;7.312;2023-02-20T11:29:10;11.20;92.30
15483;DHT22;7843;50.330;7.312;2023-02-20T11:31:38;11.20;92.40
15483;DHT22;7843;50.330;7.312;2023-02-20T11:34:23;11.30;92.40
15483;DHT22;7843;50.330;7.312;2023-02-20T11:36:52;11.30;91.30
15483;DHT22;7843;50.330;7.312;2023-02-20T11:39:25;11.40;91.40
15483;DHT22;7843;50.330;7.312;2023-02-20T11:44:37;11.40;91.10
15483;DHT22;7843;50.330;7.312;2023-02-20T11:47:24;11.50;91.00
15483;DHT22;7843;50.330;7.312;2023-02-20T11:50:26;11.50;90.60
15483;DHT22;7843;50.330;7.312;2023-02-20T11:53:03;11.50;90.90
15483;DHT22;7843;50.330;7.312;2023-02-20T11:55:31;11.50;91.70
15483;DHT22;7843;50.330;7.312;2023-02-20T11:57:58;11.60;90.70
15483;DHT22;7843;50.330;7.312;2023-02-20T12:00:27;11.70;91.50
15483;DHT22;7843;50.330;7.312;2023-02-20T12:10:52;12.40;90.10
15483;DHT22;7843;50.330;7.312;2023-02-20T12:13:21;12.40;89.40
15483;DHT22;7843;50.330;7.312;2023-02-20T12:24:24;13.00;87.40
15483;DHT22;7843;50.330;7.312;2023-02-20T12:26:58;13.10;88.00
15483;DHT22;7843;50.330;7.312;2023-02-20T12:29:42;13.10;87.50
15483;DHT22;7843;50.330;7.312;2023-02-20T12:32:42;13.20;87.50
15483;DHT22;7843;50.330;7.312;2023-02-20T12:40:44;13.50;86.50
15483;DHT22;7843;50.330;7.312;2023-02-20T12:43:42;13.50;84.70
15483;DHT22;7843;50.330;7.312;2023-02-20T12:51:48;13.90;84.10
15483;DHT22;7843;50.330;7.312;2023-02-20T12:54:42;13.90;84.70
15483;DHT22;7843;50.330;7.312;2023-02-20T13:00:00;14.10;83.80
15483;DHT22;7843;50.330;7.312;2023-02-20T13:02:43;14.50;83.00
15483;DHT22;7843;50.330;7.312;2023-02-20T13:05:15;15.20;82.10
15483;DHT22;7843;50.330;7.312;2023-02-20T13:08:00;17.40;77.10
15483;DHT22;7843;50.330;7.312;2023-02-20T13:10:31;18.10;75.50
15483;DHT22;7843;50.330;7.312;2023-02-20T13:12:58;19.00;72.10
15483;DHT22;7843;50.330;7.312;2023-02-20T14:53:43;17.70;73.00
15483;DHT22;7843;50.330;7.312;2023-02-20T14:56:17;17.10;75.00
15483;DHT22;7843;50.330;7.312;2023-02-20T14:58:44;16.70;76.80
15483;DHT22;7843;50.330;7.312;2023-02-20T15:01:35;16.30;78.10
15483;DHT22;7843;50.330;7.312;2023-02-20T15:04:06;16.20;78.80
15483;DHT22;7843;50.330;7.312;2023-02-20T15:06:37;16.10;79.00
15483;DHT22;7843;50.330;7.312;2023-02-20T15:09:05;15.90;79.50
15483;DHT22;7843;50.330;7.312;2023-02-20T15:11:47;15.70;80.00
15483;DHT22;7843;50.330;7.312;2023-02-20T15:14:23;15.50;80.10
15483;DHT22;7843;50.330;7.312;2023-02-20T15:19:41;14.90;81.80
15483;DHT22;7843;50.330;7.312;2023-02-20T15:22:43;14.50;83.20
15483;DHT22;7843;50.330;7.312;2023-02-20T15:28:04;14.10;84.40
15483;DHT22;7843;50.330;7.312;2023-02-20T15:30:30;14.00;84.40
15483;DHT22;7843;50.330;7.312;2023-02-20T15:32:57;13.80;84.80
15483;DHT22;7843;50.330;7.312;2023-02-20T15:35:26;13.60;85.90
15483;DHT22;7843;50.330;7.312;2023-02-20T15:38:00;13.60;85.50
15483;DHT22;7843;50.330;7.312;2023-02-20T15:40:31;13.40;86.70
15483;DHT22;7843;50.330;7.312;2023-02-20T15:42:59;13.30;86.90
15483;DHT22;7843;50.330;7.312;2023-02-20T15:45:28;13.20;87.40
15483;DHT22;7843;50.330;7.312;2023-02-20T15:47:56;13.00;88.00
15483;DHT22;7843;50.330;7.312;2023-02-20T15:50:24;12.90;87.80
15483;DHT22;7843;50.330;7.312;2023-02-20T15:52:53;12.80;88.30
15483;DHT22;7843;50.330;7.312;2023-02-20T15:55:21;12.70;88.80
15483;DHT22;7843;50.330;7.312;2023-02-20T15:57:50;12.60;89.10
15483;DHT22;7843;50.330;7.312;2023-02-20T16:00:23;12.50;88.90
15483;DHT22;7843;50.330;7.312;2023-02-20T16:02:51;12.40;89.30
15483;DHT22;7843;50.330;7.312;2023-02-20T16:05:18;12.20;89.20
15483;DHT22;7843;50.330;7.312;2023-02-20T16:07:45;12.00;90.10
15483;DHT22;7843;50.330;7.312;2023-02-20T16:10:14;12.00;90.30
15483;DHT22;7843;50.330;7.312;2023-02-20T16:12:42;11.90;90.10
15483;DHT22;7843;50.330;7.312;2023-02-20T16:15:15;11.80;90.30
15483;DHT22;7843;50.330;7.312;2023-02-20T16:17:43;11.80;89.90
15483;DHT22;7843;50.330;7.312;2023-02-20T16:20:15;11.70;90.30
15483;DHT22;7843;50.330;7.312;2023-02-20T16:22:42;11.60;90.20
15483;DHT22;7843;50.330;7.312;2023-02-20T16:25:10;11.40;91.10
15483;DHT22;7843;50.330;7.312;2023-02-20T16:27:37;11.20;91.30
15483;DHT22;7843;50.330;7.312;2023-02-20T16:30:04;11.00;91.70
15483;DHT22;7843;50.330;7.312;2023-02-20T16:32:33;10.80;92.00
15483;DHT22;7843;50.330;7.312;2023-02-20T16:35:00;10.80;92.20
15483;DHT22;7843;50.330;7.312;2023-02-20T16:37:27;10.70;91.80
15483;DHT22;7843;50.330;7.312;2023-02-20T16:39:54;10.60;92.50
15483;DHT22;7843;50.330;7.312;2023-02-20T16:42:24;10.50;92.80
15483;DHT22;7843;50.330;7.312;2023-02-20T16:44:52;10.30;93.20
15483;DHT22;7843;50.330;7.312;2023-02-20T16:47:27;10.20;93.30
15483;DHT22;7843;50.330;7.312;2023-02-20T16:49:54;10.10;93.50
15483;DHT22;7843;50.330;7.312;2023-02-20T16:52:23;10.00;93.50
15483;DHT22;7843;50.330;7.312;2023-02-20T16:54:51;10.00;93.50
15483;DHT22;7843;50.330;7.312;2023-02-20T16:57:19;9.90;93.90
15483;DHT22;7843;50.330;7.312;2023-02-20T16:59:51;9.70;94.10
15483;DHT22;7843;50.330;7.312;2023-02-20T17:02:24;9.60;94.40
15483;DHT22;7843;50.330;7.312;2023-02-20T17:04:51;9.50;94.80
15483;DHT22;7843;50.330;7.312;2023-02-20T17:07:18;9.30;95.40
15483;DHT22;7843;50.330;7.312;2023-02-20T17:09:45;9.30;95.20
15483;DHT22;7843;50.330;7.312;2023-02-20T17:12:14;9.20;95.40
15483;DHT22;7843;50.330;7.312;2023-02-20T17:14:41;9.10;95.70
15483;DHT22;7843;50.330;7.312;2023-02-20T17:17:08;9.00;95.90
15483;DHT22;7843;50.330;7.312;2023-02-20T17:19:37;8.80;95.80
15483;DHT22;7843;50.330;7.312;2023-02-20T17:22:04;8.70;96.00
15483;DHT22;7843;50.330;7.312;2023-02-20T17:24:31;8.60;96.20
15483;DHT22;7843;50.330;7.312;2023-02-20T17:26:59;8.60;96.50
15483;DHT22;7843;50.330;7.312;2023-02-20T17:29:26;8.60;96.70
15483;DHT22;7843;50.330;7.312;2023-02-20T17:31:53;8.50;96.70
15483;DHT22;7843;50.330;7.312;2023-02-20T17:34:20;8.60;96.70
15483;DHT22;7843;50.330;7.312;2023-02-20T17:36:47;8.50;96.60
15483;DHT22;7843;50.330;7.312;2023-02-20T17:39:20;8.30;96.70
15483;DHT22;7843;50.330;7.312;2023-02-20T17:41:52;8.20;97.20
15483;DHT22;7843;50.330;7.312;2023-02-20T17:44:21;8.10;97.80
15483;DHT22;7843;50.330;7.312;2023-02-20T17:46:50;7.90;98.30
15483;DHT22;7843;50.330;7.312;2023-02-20T17:49:17;7.90;98.70
15483;DHT22;7843;50.330;7.312;2023-02-20T17:51:45;7.90;99.10
15483;DHT22;7843;50.330;7.312;2023-02-20T17:54:12;7.90;99.30
15483;DHT22;7843;50.330;7.312;2023-02-20T17:56:44;7.80;99.50
15483;DHT22;7843;50.330;7.312;2023-02-20T17:59:11;7.90;99.60
15483;DHT22;7843;50.330;7.312;2023-02-20T18:01:38;7.80;99.70
15483;DHT22;7843;50.330;7.312;2023-02-20T18:04:05;7.80;99.70
15483;DHT22;7843;50.330;7.312;2023-02-20T18:06:32;7.80;99.70
15483;DHT22;7843;50.330;7.312;2023-02-20T18:08:59;7.80;99.70
15483;DHT22;7843;50.330;7.312;2023-02-20T18:11:26;7.80;99.60
15483;DHT22;7843;50.330;7.312;2023-02-20T18:13:54;7.90;99.50
15483;DHT22;7843;50.330;7.312;2023-02-20T18:16:23;7.80;99.50
15483;DHT22;7843;50.330;7.312;2023-02-20T18:18:51;7.80;99.50
15483;DHT22;7843;50.330;7.312;2023-02-20T18:21:20;7.90;99.70
15483;DHT22;7843;50.330;7.312;2023-02-20T18:23:47;7.90;99.90
15483;DHT22;7843;50.330;7.312;2023-02-20T18:26:14;7.90;99.90
15483;DHT22;7843;50.330;7.312;2023-02-20T18:28:42;7.80;99.90
15483;DHT22;7843;50.330;7.312;2023-02-20T18:31:09;7.80;99.90
15483;DHT22;7843;50.330;7.312;2023-02-20T18:33:36;7.80;99.90
15483;DHT22;7843;50.330;7.312;2023-02-20T18:36:03;7.70;99.90
15483;DHT22;7843;50.330;7.312;2023-02-20T18:38:34;7.60;99.90
15483;DHT22;7843;50.330;7.312;2023-02-20T18:41:01;7.40;99.90
15483;DHT22;7843;50.330;7.312;2023-02-20T18:43:28;7.30;99.90
15483;DHT22;7843;50.330;7.312;2023-02-20T18:45:55;7.20;99.90
15483;DHT22;7843;50.330;7.312;2023-02-20T18:48:21;7.00;99.90
15483;DHT22;7843;50.330;7.312;2023-02-20T18:50:48;6.90;99.90
15483;DHT22;7843;50.330;7.312;2023-02-20T18:53:16;6.70;99.90
15483;DHT22;7843;50.330;7.312;2023-02-20T18:55:42;6.60;99.90
15483;DHT22;7843;50.330;7.312;2023-02-20T18:58:09;6.60;99.90
15483;DHT22;7843;50.330;7.312;2023-02-20T19:00:36;6.50;99.90
15483;DHT22;7843;50.330;7.312;2023-02-20T19:03:05;6.30;99.90
15483;DHT22;7843;50.330;7.312;2023-02-20T19:05:32;6.30;99.90
15483;DHT22;7843;50.330;7.312;2023-02-20T19:08:00;6.20;99.90
15483;DHT22;7843;50.330;7.312;2023-02-20T19:10:29;6.10;99.90
15483;DHT22;7843;50.330;7.312;2023-02-20T19:12:56;6.00;99.90
15483;DHT22;7843;50.330;7.312;2023-02-20T19:15:23;6.00;99.90